WXM80 ListenWXM80 Stop

You find our weather info also at:

UK Metoffice

WeatherCloud

Weather Underground

Northeastern Weather Network

AWEKAS

Citizen Weather Observer Program (CWOP)

HAMweather, WeatherForYou, PWS Weather


Weather Underground History page Text

Daily Summary for June 6, 2016 Units:  English    Metric   Both
« Previous Day
Next Day »
Daily Weekly Monthly Yearly Custom
  High: Low: Average:
Temperature: 87.9 °F 65.2 °F 74.6 °F
Dew Point: 68.3 °F 59.8 °F 64.2 °F
Humidity: 98 % 40 % 74 %
Wind Speed: 7.3 mph 0.0 mph 2.4 mph
Wind Gust: 15.0 mph - -
Wind:- - SW
Pressure: 29.66 in 29.60 in -
Precipitation: 0.01 in    
Historical Graphs
 
 
Tabular Data for June 6, 2016
Time Temperature Dew Point Pressure Wind Wind Speed Wind Gust Humidity Rainfall Rate (Hourly)
00:03 66.0 °F 65.1 °F 29.63 in SW 0.4 mph 3.5 mph 97 % 0.00 in
00:13 65.9 °F 65.0 °F 29.62 in Calm   1.0 mph 97 % 0.00 in
00:18 65.8 °F 64.9 °F 29.62 in SW 0.3 mph 1.2 mph 97 % 0.00 in
00:28 65.8 °F 64.9 °F 29.62 in SW 0.4 mph 1.2 mph 97 % 0.00 in
00:33 65.7 °F 64.8 °F 29.62 in SW 0.9 mph 4.0 mph 97 % 0.00 in
00:38 65.7 °F 64.8 °F 29.62 in South 0.8 mph 3.5 mph 97 % 0.00 in
00:43 65.7 °F 64.8 °F 29.61 in West 0.7 mph 3.0 mph 97 % 0.00 in
00:48 65.6 °F 64.7 °F 29.62 in SSW 1.7 mph 3.5 mph 97 % 0.00 in
00:54 65.6 °F 64.7 °F 29.62 in SW 2.2 mph 3.5 mph 97 % 0.00 in
00:59 65.6 °F 64.7 °F 29.62 in SSW 1.3 mph 2.3 mph 97 % 0.00 in
01:04 65.5 °F 64.6 °F 29.62 in SW 1.8 mph 5.8 mph 97 % 0.00 in
01:09 65.5 °F 64.6 °F 29.62 in SW 1.6 mph 5.8 mph 97 % 0.00 in
01:14 65.5 °F 64.6 °F 29.62 in SSW 1.1 mph 3.5 mph 97 % 0.00 in
01:19 65.5 °F 64.6 °F 29.61 in SSW 2.0 mph 6.0 mph 97 % 0.00 in
01:24 65.6 °F 64.7 °F 29.61 in SW 1.0 mph 2.3 mph 97 % 0.00 in
01:29 65.6 °F 64.7 °F 29.61 in WSW 0.2 mph 3.5 mph 97 % 0.00 in
01:34 65.5 °F 64.6 °F 29.60 in SSW 1.2 mph 3.5 mph 97 % 0.00 in
01:39 65.5 °F 64.6 °F 29.60 in SSW 0.2 mph 2.3 mph 97 % 0.00 in
01:45 65.4 °F 64.5 °F 29.61 in SSW 1.3 mph 3.5 mph 97 % 0.00 in
01:50 65.4 °F 64.5 °F 29.61 in SSW 2.2 mph 4.0 mph 97 % 0.00 in
01:55 65.4 °F 64.5 °F 29.61 in SSW 1.8 mph 3.5 mph 97 % 0.00 in
02:00 65.4 °F 64.5 °F 29.61 in SW 0.8 mph 3.5 mph 97 % 0.00 in
02:05 65.4 °F 64.5 °F 29.61 in SW 1.5 mph 4.6 mph 97 % 0.00 in
02:10 65.4 °F 64.5 °F 29.61 in SSW 2.8 mph 4.0 mph 97 % 0.00 in
02:15 65.5 °F 64.6 °F 29.61 in SW 1.2 mph 4.0 mph 97 % 0.00 in
02:20 65.4 °F 64.5 °F 29.61 in SSW 3.0 mph 5.8 mph 97 % 0.00 in
02:25 65.4 °F 64.5 °F 29.61 in SW 1.7 mph 3.5 mph 97 % 0.00 in
02:31 65.4 °F 64.5 °F 29.61 in SSW 2.9 mph 4.6 mph 97 % 0.00 in
02:36 65.4 °F 64.5 °F 29.61 in SW 4.6 mph 8.1 mph 97 % 0.00 in
02:41 65.4 °F 64.5 °F 29.61 in SW 3.2 mph 6.0 mph 97 % 0.00 in
02:46 65.4 °F 64.5 °F 29.61 in SW 3.0 mph 4.6 mph 97 % 0.00 in
02:51 65.4 °F 64.5 °F 29.61 in SSW 3.0 mph 3.5 mph 97 % 0.00 in
02:56 65.5 °F 64.6 °F 29.61 in SW 3.4 mph 5.8 mph 97 % 0.00 in
03:01 65.4 °F 64.5 °F 29.61 in SSW 2.4 mph 4.6 mph 97 % 0.00 in
03:06 65.5 °F 64.6 °F 29.61 in SSW 3.3 mph 6.9 mph 97 % 0.00 in
03:11 65.4 °F 64.5 °F 29.61 in SSW 2.3 mph 4.6 mph 97 % 0.00 in
03:16 65.4 °F 64.5 °F 29.61 in West 0.9 mph 3.5 mph 97 % 0.00 in
03:22 65.4 °F 64.5 °F 29.61 in WSW 1.2 mph 3.5 mph 97 % 0.00 in
03:27 65.3 °F 64.4 °F 29.61 in West 1.9 mph 3.5 mph 97 % 0.01 in
03:32 65.3 °F 64.4 °F 29.61 in SW 1.1 mph 2.3 mph 97 % 0.01 in
03:37 65.3 °F 64.4 °F 29.60 in SSW 0.1 mph 3.5 mph 97 % 0.01 in
03:42 65.3 °F 64.4 °F 29.60 in SW 0.5 mph 1.2 mph 97 % 0.01 in
03:47 65.2 °F 64.3 °F 29.61 in SW 0.1 mph 2.3 mph 97 % 0.01 in
03:52 65.2 °F 64.3 °F 29.61 in SSW 0.7 mph 2.3 mph 97 % 0.01 in
03:57 65.2 °F 64.3 °F 29.61 in WSW 0.2 mph 3.5 mph 97 % 0.01 in
04:02 65.2 °F 64.3 °F 29.61 in SW 0.1 mph 3.5 mph 97 % 0.01 in
04:07 65.2 °F 64.3 °F 29.61 in SW 0.6 mph 3.5 mph 97 % 0.01 in
04:13 65.2 °F 64.3 °F 29.61 in SW 1.0 mph 3.5 mph 97 % 0.01 in
04:18 65.2 °F 64.6 °F 29.61 in SW 2.5 mph 4.6 mph 98 % 0.01 in
04:23 65.2 °F 64.6 °F 29.61 in SW 1.0 mph 3.5 mph 98 % 0.00 in
04:28 65.3 °F 64.7 °F 29.61 in SW 0.1 mph 1.2 mph 98 % 0.00 in
04:33 65.4 °F 64.8 °F 29.61 in SW 1.8 mph 3.5 mph 98 % 0.00 in
04:38 65.4 °F 64.8 °F 29.61 in SSW 1.7 mph 3.5 mph 98 % 0.00 in
04:43 65.5 °F 64.9 °F 29.61 in SSW 3.5 mph 5.8 mph 98 % 0.00 in
04:48 65.5 °F 64.9 °F 29.61 in SSW 3.1 mph 5.0 mph 98 % 0.00 in
04:53 65.6 °F 65.0 °F 29.60 in WSW 1.5 mph 3.5 mph 98 % 0.00 in
04:58 65.6 °F 65.0 °F 29.60 in SSW 0.2 mph 3.5 mph 98 % 0.00 in
05:09 65.7 °F 65.1 °F 29.60 in SW 2.9 mph 8.0 mph 98 % 0.00 in
05:14 65.8 °F 65.2 °F 29.60 in SSW 1.8 mph 5.8 mph 98 % 0.00 in
05:24 65.9 °F 65.3 °F 29.60 in WSW 1.2 mph 3.5 mph 98 % 0.00 in
05:29 66.0 °F 65.4 °F 29.60 in SW 3.5 mph 6.9 mph 98 % 0.00 in
05:34 66.1 °F 65.5 °F 29.60 in SW 2.9 mph 6.9 mph 98 % 0.00 in
05:39 66.1 °F 65.5 °F 29.61 in SSW 2.4 mph 4.6 mph 98 % 0.00 in
05:44 66.2 °F 65.6 °F 29.61 in SSW 3.2 mph 4.0 mph 98 % 0.00 in
05:49 66.3 °F 65.7 °F 29.61 in SSW 2.5 mph 3.5 mph 98 % 0.00 in
05:55 66.3 °F 65.7 °F 29.61 in SW 3.0 mph 6.9 mph 98 % 0.00 in
06:00 66.4 °F 65.8 °F 29.61 in SW 1.9 mph 3.5 mph 98 % 0.00 in
06:05 66.4 °F 65.8 °F 29.61 in SW 2.2 mph 4.6 mph 98 % 0.00 in
06:10 66.4 °F 65.8 °F 29.61 in SW 2.8 mph 4.6 mph 98 % 0.00 in
06:15 66.4 °F 65.8 °F 29.61 in SW 3.8 mph 6.0 mph 98 % 0.00 in
06:20 66.4 °F 65.8 °F 29.61 in WSW 3.2 mph 4.6 mph 98 % 0.00 in
06:25 66.5 °F 65.9 °F 29.62 in SW 4.3 mph 5.8 mph 98 % 0.00 in
06:30 66.7 °F 66.1 °F 29.62 in WSW 3.4 mph 4.6 mph 98 % 0.00 in
06:35 66.8 °F 66.2 °F 29.62 in SW 0.7 mph 3.5 mph 98 % 0.00 in
06:40 67.0 °F 66.4 °F 29.62 in WSW 3.6 mph 4.6 mph 98 % 0.00 in
06:42 67.1 °F 66.5 °F 29.62 in WSW 1.4 mph 2.3 mph 98 % 0.00 in
06:47 67.2 °F 66.6 °F 29.63 in WSW 2.8 mph 3.5 mph 98 % 0.00 in
06:52 67.5 °F 66.9 °F 29.63 in WSW 3.4 mph 5.0 mph 98 % 0.00 in
06:57 67.6 °F 67.0 °F 29.63 in SSW 3.6 mph 6.9 mph 98 % 0.00 in
07:02 67.8 °F 67.2 °F 29.63 in West 3.8 mph 9.2 mph 98 % 0.00 in
07:07 68.0 °F 67.4 °F 29.63 in WSW 2.9 mph 4.6 mph 98 % 0.00 in
07:12 68.2 °F 67.6 °F 29.63 in SSW 4.0 mph 6.9 mph 98 % 0.00 in
07:17 68.4 °F 67.8 °F 29.63 in SSW 4.1 mph 5.8 mph 98 % 0.00 in
07:33 68.7 °F 67.5 °F 29.64 in SW 4.0 mph 8.1 mph 96 % 0.00 in
07:38 68.8 °F 67.3 °F 29.64 in WNW 3.4 mph 5.0 mph 95 % 0.00 in
07:43 68.8 °F 67.0 °F 29.64 in SW 2.0 mph 3.5 mph 94 % 0.00 in
07:48 68.9 °F 67.1 °F 29.63 in SW 2.5 mph 3.5 mph 94 % 0.00 in
07:53 69.0 °F 66.9 °F 29.63 in WNW 6.9 mph 15.0 mph 93 % 0.00 in
07:58 69.1 °F 66.7 °F 29.63 in WSW 2.1 mph 6.0 mph 92 % 0.00 in
08:03 69.3 °F 66.9 °F 29.64 in North 3.6 mph 10.4 mph 92 % 0.00 in
08:08 69.5 °F 66.8 °F 29.64 in SW 3.8 mph 10.0 mph 91 % 0.00 in
08:14 69.6 °F 66.5 °F 29.64 in SW 3.6 mph 8.1 mph 90 % 0.00 in
08:19 69.7 °F 66.3 °F 29.64 in WSW 3.6 mph 11.5 mph 89 % 0.00 in
08:29 70.1 °F 66.7 °F 29.65 in SSW 2.8 mph 4.6 mph 89 % 0.00 in
08:34 70.2 °F 66.1 °F 29.65 in WNW 6.0 mph 11.5 mph 87 % 0.00 in
08:39 70.4 °F 66.0 °F 29.65 in West 7.3 mph 11.5 mph 86 % 0.00 in
08:49 70.7 °F 66.3 °F 29.65 in North 1.0 mph 3.5 mph 86 % 0.00 in
08:54 70.8 °F 66.4 °F 29.65 in SSW 1.2 mph 5.8 mph 86 % 0.00 in
09:00 71.0 °F 66.3 °F 29.65 in NW 2.0 mph 8.1 mph 85 % 0.00 in
09:05 71.1 °F 66.4 °F 29.65 in NW 1.2 mph 8.0 mph 85 % 0.00 in
09:10 71.2 °F 65.8 °F 29.65 in WSW 3.2 mph 8.1 mph 83 % 0.00 in
09:15 71.2 °F 65.8 °F 29.65 in WSW 4.0 mph 9.0 mph 83 % 0.00 in
09:20 71.3 °F 65.9 °F 29.66 in SW 3.9 mph 7.0 mph 83 % 0.00 in
09:25 71.5 °F 65.7 °F 29.65 in WSW 5.5 mph 8.1 mph 82 % 0.00 in
09:30 71.6 °F 65.5 °F 29.66 in West 5.3 mph 10.4 mph 81 % 0.00 in
09:35 72.0 °F 66.6 °F 29.66 in SSW 2.2 mph 4.6 mph 83 % 0.00 in
09:40 72.2 °F 66.4 °F 29.66 in West 1.7 mph 6.0 mph 82 % 0.00 in
09:45 72.7 °F 66.2 °F 29.66 in SW 5.5 mph 9.2 mph 80 % 0.00 in
09:51 73.4 °F 65.7 °F 29.66 in WSW 6.7 mph 11.5 mph 77 % 0.00 in
09:56 74.0 °F 66.7 °F 29.66 in SW 3.0 mph 8.1 mph 78 % 0.00 in
10:01 74.8 °F 67.1 °F 29.66 in WSW 2.9 mph 9.2 mph 77 % 0.00 in
10:06 75.5 °F 66.2 °F 29.66 in SSW 4.8 mph 9.2 mph 73 % 0.00 in
10:11 76.0 °F 66.3 °F 29.66 in WSW 5.8 mph 10.4 mph 72 % 0.00 in
10:16 76.5 °F 66.8 °F 29.66 in West 5.1 mph 8.1 mph 72 % 0.00 in
10:21 77.0 °F 66.5 °F 29.66 in West 3.8 mph 6.0 mph 70 % 0.00 in
10:26 77.5 °F 66.5 °F 29.66 in NNE 3.1 mph 10.4 mph 69 % 0.00 in
10:31 78.1 °F 68.3 °F 29.66 in SSW 2.7 mph 5.8 mph 72 % 0.00 in
10:36 78.6 °F 66.3 °F 29.66 in West 5.3 mph 9.2 mph 66 % 0.00 in
10:42 78.9 °F 66.1 °F 29.65 in WSW 4.6 mph 6.9 mph 65 % 0.00 in
10:52 79.3 °F 66.5 °F 29.66 in SW 4.4 mph 6.9 mph 65 % 0.00 in
10:57 79.6 °F 66.8 °F 29.65 in SW 6.1 mph 9.2 mph 65 % 0.00 in
11:02 80.0 °F 66.7 °F 29.66 in SW 5.1 mph 9.2 mph 64 % 0.00 in
11:07 80.0 °F 64.9 °F 29.65 in West 3.8 mph 8.0 mph 60 % 0.00 in
11:12 80.2 °F 65.1 °F 29.65 in WNW 2.6 mph 4.6 mph 60 % 0.00 in
11:17 80.2 °F 64.6 °F 29.65 in NW 3.3 mph 8.1 mph 59 % 0.00 in
11:22 80.5 °F 64.9 °F 29.65 in WSW 6.3 mph 10.4 mph 59 % 0.00 in
11:27 80.8 °F 64.6 °F 29.66 in SSW 5.3 mph 8.1 mph 58 % 0.00 in
11:33 81.0 °F 64.8 °F 29.66 in WSW 4.1 mph 13.8 mph 58 % 0.00 in
11:38 81.2 °F 64.0 °F 29.66 in SW 4.4 mph 11.5 mph 56 % 0.00 in
11:48 81.6 °F 64.4 °F 29.66 in West 4.3 mph 8.1 mph 56 % 0.00 in
11:53 81.8 °F 64.1 °F 29.66 in West 4.1 mph 9.2 mph 55 % 0.00 in
11:58 82.1 °F 64.3 °F 29.66 in WSW 4.9 mph 9.2 mph 55 % 0.00 in
12:03 82.2 °F 64.9 °F 29.66 in West 4.0 mph 12.7 mph 56 % 0.00 in
12:08 82.4 °F 63.5 °F 29.66 in WSW 3.7 mph 4.6 mph 53 % 0.00 in
12:18 82.7 °F 63.3 °F 29.66 in WSW 3.8 mph 9.2 mph 52 % 0.00 in
12:24 82.8 °F 64.5 °F 29.66 in West 1.3 mph 8.1 mph 54 % 0.00 in
12:29 83.0 °F 63.0 °F 29.66 in WSW 5.9 mph 11.5 mph 51 % 0.00 in
12:34 83.1 °F 63.7 °F 29.65 in SW 5.3 mph 11.5 mph 52 % 0.00 in
12:49 84.2 °F 62.4 °F 29.65 in SW 3.0 mph 4.6 mph 48 % 0.00 in
12:59 84.7 °F 63.4 °F 29.65 in SSW 3.1 mph 5.8 mph 49 % 0.00 in
13:04 84.8 °F 62.3 °F 29.65 in West 3.0 mph 5.0 mph 47 % 0.00 in
13:15 85.1 °F 64.9 °F 29.64 in SSW 2.9 mph 4.6 mph 51 % 0.00 in
13:20 85.3 °F 62.2 °F 29.64 in SW 4.9 mph 9.2 mph 46 % 0.00 in
13:25 85.4 °F 62.9 °F 29.64 in WSW 1.8 mph 5.8 mph 47 % 0.00 in
13:30 85.6 °F 61.8 °F 29.63 in SSW 2.5 mph 8.1 mph 45 % 0.00 in
13:35 85.9 °F 62.1 °F 29.63 in SW 3.9 mph 9.2 mph 45 % 0.00 in
13:40 86.2 °F 62.4 °F 29.63 in SSW 4.6 mph 5.8 mph 45 % 0.00 in
13:45 86.4 °F 61.3 °F 29.63 in SSW 4.4 mph 11.5 mph 43 % 0.00 in
13:50 86.5 °F 61.3 °F 29.63 in South 2.9 mph 3.5 mph 43 % 0.00 in
13:55 86.6 °F 61.4 °F 29.63 in SW 2.6 mph 5.0 mph 43 % 0.00 in
14:00 86.8 °F 62.3 °F 29.63 in WSW 4.2 mph 5.0 mph 44 % 0.00 in
14:06 87.1 °F 63.2 °F 29.63 in South 3.3 mph 5.0 mph 45 % 0.00 in
14:11 87.1 °F 60.5 °F 29.63 in WSW 3.9 mph 6.9 mph 41 % 0.00 in
14:16 87.1 °F 59.8 °F 29.63 in NW 3.3 mph 6.9 mph 40 % 0.00 in
14:21 87.3 °F 62.7 °F 29.63 in West 5.6 mph 8.1 mph 44 % 0.00 in
14:26 87.4 °F 60.8 °F 29.62 in West 3.6 mph 8.0 mph 41 % 0.00 in
14:31 87.5 °F 62.2 °F 29.62 in West 4.7 mph 9.2 mph 43 % 0.00 in
14:36 87.6 °F 61.0 °F 29.62 in SSW 6.0 mph 10.4 mph 41 % 0.00 in
14:46 87.8 °F 62.5 °F 29.62 in SSW 4.2 mph 4.6 mph 43 % 0.00 in
14:51 87.9 °F 60.6 °F 29.62 in WSW 5.1 mph 11.5 mph 40 % 0.00 in
14:57 87.9 °F 62.6 °F 29.61 in WSW 3.4 mph 8.1 mph 43 % 0.00 in
15:02 87.9 °F 60.6 °F 29.61 in West 6.4 mph 13.8 mph 40 % 0.00 in
15:07 87.9 °F 61.3 °F 29.61 in WSW 6.0 mph 10.4 mph 41 % 0.00 in
15:12 87.7 °F 61.1 °F 29.61 in WNW 1.3 mph 6.9 mph 41 % 0.00 in
15:22 87.9 °F 60.6 °F 29.61 in West 6.9 mph 10.4 mph 40 % 0.00 in
15:27 87.6 °F 61.0 °F 29.61 in West 3.9 mph 9.2 mph 41 % 0.00 in
15:32 87.6 °F 60.3 °F 29.62 in WSW 6.6 mph 15.0 mph 40 % 0.00 in
15:37 87.5 °F 60.2 °F 29.62 in SSW 3.1 mph 8.1 mph 40 % 0.00 in
15:42 87.3 °F 60.7 °F 29.62 in WSW 2.3 mph 6.0 mph 41 % 0.00 in
15:48 87.3 °F 60.7 °F 29.62 in WSW 3.8 mph 6.9 mph 41 % 0.00 in
15:53 87.0 °F 60.5 °F 29.62 in SSW 5.2 mph 11.5 mph 41 % 0.00 in
16:03 86.2 °F 60.4 °F 29.62 in WSW 3.4 mph 6.9 mph 42 % 0.00 in
16:08 85.9 °F 60.1 °F 29.61 in WSW 4.0 mph 8.1 mph 42 % 0.00 in
16:13 85.6 °F 60.5 °F 29.62 in WSW 2.0 mph 5.8 mph 43 % 0.00 in
16:18 85.4 °F 62.9 °F 29.62 in WSW 2.5 mph 5.8 mph 47 % 0.00 in
16:23 85.3 °F 60.9 °F 29.61 in SSW 5.4 mph 7.0 mph 44 % 0.00 in
16:28 85.1 °F 60.1 °F 29.62 in SSW 4.8 mph 10.4 mph 43 % 0.00 in
16:33 84.9 °F 61.8 °F 29.62 in SW 1.9 mph 4.0 mph 46 % 0.00 in
16:39 84.8 °F 62.9 °F 29.61 in SSW 1.2 mph 3.5 mph 48 % 0.00 in
16:44 84.5 °F 63.8 °F 29.61 in SSW 2.1 mph 4.6 mph 50 % 0.00 in
16:49 84.2 °F 63.5 °F 29.61 in SSW 1.3 mph 3.5 mph 50 % 0.00 in
16:54 84.0 °F 63.4 °F 29.61 in South 0.7 mph 2.3 mph 50 % 0.00 in
16:59 83.6 °F 63.0 °F 29.60 in SSE 1.3 mph 3.5 mph 50 % 0.00 in
17:04 83.4 °F 63.4 °F 29.60 in South 3.1 mph 5.0 mph 51 % 0.00 in
17:09 83.2 °F 63.7 °F 29.60 in South 1.5 mph 3.5 mph 52 % 0.00 in
17:14 83.1 °F 63.7 °F 29.60 in SSW 3.3 mph 8.1 mph 52 % 0.00 in
17:19 82.9 °F 64.0 °F 29.60 in SW 2.3 mph 3.5 mph 53 % 0.00 in
17:24 82.7 °F 63.8 °F 29.60 in SSE 0.8 mph 3.5 mph 53 % 0.00 in
17:30 82.3 °F 63.5 °F 29.60 in SSW 1.8 mph 3.5 mph 53 % 0.00 in
17:35 81.9 °F 62.5 °F 29.60 in SSE 1.3 mph 2.3 mph 52 % 0.00 in
17:45 81.2 °F 63.0 °F 29.60 in SSW 1.6 mph 3.5 mph 54 % 0.00 in
17:50 80.8 °F 62.6 °F 29.60 in SSW 1.2 mph 4.6 mph 54 % 0.00 in
17:55 80.5 °F 62.8 °F 29.60 in SE 1.1 mph 3.5 mph 55 % 0.00 in
18:00 80.4 °F 63.8 °F 29.60 in SSW 1.8 mph 5.0 mph 57 % 0.00 in
18:05 80.3 °F 63.2 °F 29.60 in SSW 2.7 mph 4.6 mph 56 % 0.00 in
18:10 80.2 °F 62.6 °F 29.60 in SSW 1.5 mph 4.0 mph 55 % 0.00 in
18:15 80.1 °F 63.0 °F 29.60 in SE 0.6 mph 2.3 mph 56 % 0.00 in
18:21 79.9 °F 63.3 °F 29.60 in South 1.4 mph 3.5 mph 57 % 0.00 in
18:26 79.7 °F 62.6 °F 29.60 in SW 1.8 mph 3.5 mph 56 % 0.00 in
18:31 79.6 °F 62.5 °F 29.60 in SSE 1.8 mph 5.0 mph 56 % 0.00 in
18:36 79.5 °F 62.4 °F 29.60 in SSE 2.5 mph 3.5 mph 56 % 0.00 in
18:41 79.5 °F 63.4 °F 29.60 in South 0.3 mph 2.3 mph 58 % 0.00 in
18:46 79.5 °F 62.9 °F 29.60 in SSW 2.0 mph 5.0 mph 57 % 0.00 in
18:51 79.5 °F 62.9 °F 29.60 in South 2.1 mph 3.5 mph 57 % 0.00 in
18:56 79.5 °F 63.4 °F 29.60 in WSW 1.5 mph 3.5 mph 58 % 0.00 in
19:01 79.4 °F 63.3 °F 29.60 in SSW 0.7 mph 1.2 mph 58 % 0.00 in
19:06 79.3 °F 63.2 °F 29.60 in SSW 0.3 mph 3.5 mph 58 % 0.00 in
19:12 79.3 °F 63.2 °F 29.61 in SSW 1.5 mph 3.5 mph 58 % 0.00 in
19:17 79.2 °F 63.1 °F 29.62 in SW 0.3 mph 3.5 mph 58 % 0.00 in
19:22 79.1 °F 63.1 °F 29.62 in SSW 1.9 mph 4.6 mph 58 % 0.00 in
19:27 78.9 °F 63.4 °F 29.62 in SSW 1.5 mph 3.5 mph 59 % 0.00 in
19:37 78.6 °F 63.6 °F 29.61 in South 0.8 mph 3.5 mph 60 % 0.00 in
19:42 78.5 °F 63.5 °F 29.62 in SSE 0.7 mph 2.3 mph 60 % 0.00 in
19:47 78.3 °F 63.3 °F 29.61 in SSE 0.5 mph 3.5 mph 60 % 0.00 in
19:57 77.9 °F 63.4 °F 29.61 in South 1.4 mph 3.5 mph 61 % 0.00 in
20:03 77.7 °F 63.6 °F 29.62 in South 0.5 mph 3.5 mph 62 % 0.00 in
20:08 77.5 °F 63.5 °F 29.62 in South 0.6 mph 2.3 mph 62 % 0.00 in
20:13 77.3 °F 63.3 °F 29.62 in SSW 0.6 mph 2.3 mph 62 % 0.00 in
20:18 77.1 °F 63.1 °F 29.62 in SSE 0.1 mph 1.2 mph 62 % 0.00 in
20:23 76.9 °F 63.3 °F 29.62 in SSE 0.9 mph 3.5 mph 63 % 0.00 in
20:28 76.5 °F 63.0 °F 29.62 in WSW 0.2 mph 1.2 mph 63 % 0.00 in
20:33 76.3 °F 63.2 °F 29.62 in WSW 0.4 mph 2.3 mph 64 % 0.00 in
20:38 76.1 °F 63.5 °F 29.62 in SE 0.4 mph 1.2 mph 65 % 0.00 in
20:43 75.9 °F 63.3 °F 29.62 in SE 0.3 mph 2.3 mph 65 % 0.00 in
20:48 75.6 °F 63.4 °F 29.61 in SSW 0.3 mph 2.3 mph 66 % 0.00 in
20:54 75.4 °F 63.2 °F 29.61 in SSE 0.3 mph 1.2 mph 66 % 0.00 in
20:59 75.2 °F 63.5 °F 29.62 in Calm     67 % 0.00 in
21:09 74.9 °F 63.2 °F 29.61 in SE 0.1 mph 1.2 mph 67 % 0.00 in
21:14 74.7 °F 63.4 °F 29.62 in SE 0.2 mph 1.2 mph 68 % 0.00 in
21:19 74.5 °F 63.7 °F 29.62 in WSW 0.3 mph 3.5 mph 69 % 0.00 in
21:24 74.3 °F 63.5 °F 29.62 in SW 0.4 mph 1.2 mph 69 % 0.00 in
21:29 74.1 °F 63.7 °F 29.62 in SW 0.3 mph 1.0 mph 70 % 0.00 in
21:34 73.9 °F 63.5 °F 29.62 in SW 0.4 mph 2.3 mph 70 % 0.00 in
21:40 73.7 °F 63.7 °F 29.62 in SW 1.6 mph 2.0 mph 71 % 0.00 in
21:45 73.5 °F 63.5 °F 29.62 in SW 0.6 mph 1.2 mph 71 % 0.00 in
21:50 73.4 °F 63.8 °F 29.62 in SW 0.3 mph 1.2 mph 72 % 0.00 in
21:55 73.2 °F 63.6 °F 29.62 in SE 0.5 mph 2.0 mph 72 % 0.00 in
22:00 73.1 °F 63.5 °F 29.62 in Calm   2.3 mph 72 % 0.00 in
22:05 73.0 °F 63.4 °F 29.62 in Calm   1.2 mph 72 % 0.00 in
22:10 72.9 °F 63.7 °F 29.62 in SSW 1.1 mph 1.2 mph 73 % 0.00 in
22:15 72.8 °F 63.6 °F 29.62 in South 0.5 mph 1.2 mph 73 % 0.00 in
22:20 72.8 °F 63.6 °F 29.62 in South 0.3 mph 1.2 mph 73 % 0.00 in
22:26 72.8 °F 64.0 °F 29.62 in SSE 0.1 mph 1.2 mph 74 % 0.00 in
22:31 72.7 °F 63.9 °F 29.62 in SSE 0.2 mph 1.2 mph 74 % 0.00 in
22:36 72.7 °F 63.9 °F 29.61 in SSE 0.7 mph 2.3 mph 74 % 0.00 in
22:41 72.7 °F 64.3 °F 29.62 in SSE 0.9 mph 2.3 mph 75 % 0.00 in
22:46 72.6 °F 64.2 °F 29.62 in SSE 0.5 mph 2.3 mph 75 % 0.00 in
22:51 72.5 °F 64.1 °F 29.62 in South 1.0 mph 2.0 mph 75 % 0.00 in
22:56 72.5 °F 64.1 °F 29.61 in South 1.0 mph 3.0 mph 75 % 0.00 in
23:06 72.4 °F 64.0 °F 29.62 in SSW 0.8 mph 6.9 mph 75 % 0.00 in
23:11 72.4 °F 64.0 °F 29.62 in SSW 1.2 mph 5.8 mph 75 % 0.00 in
23:17 72.5 °F 64.1 °F 29.62 in South 2.5 mph 6.0 mph 75 % 0.00 in
23:22 72.5 °F 64.1 °F 29.62 in SW 2.2 mph 4.6 mph 75 % 0.00 in
23:32 72.6 °F 64.2 °F 29.61 in SSW 1.0 mph 3.5 mph 75 % 0.00 in
23:37 72.7 °F 64.3 °F 29.61 in SSW 2.0 mph 6.0 mph 75 % 0.00 in
23:42 72.7 °F 64.3 °F 29.61 in SSW 2.6 mph 6.0 mph 75 % 0.00 in
23:47 72.8 °F 64.0 °F 29.61 in South 2.1 mph 4.6 mph 74 % 0.00 in
23:52 72.8 °F 64.0 °F 29.61 in SSW 1.6 mph 5.8 mph 74 % 0.00 in
23:57 72.9 °F 64.1 °F 29.61 in SW 1.0 mph 2.3 mph 74 % 0.00 in
Crab Meadow Weather
Compliments of Weather Underground - 2.75 mb

Script developed by  Jim McMurry - jmcmurry@mwt.net Adapted for the template by  Wim van der Kuil - Leuven-Template.eu

Recycling: Americans threw away 38 billion plastic water bottles in 2006. A million and a half barrels of oil - enough to fuel 100,000 cars for a year - were used to produce the bottles.